sensor_id;sensor_type;location;lat;lon;timestamp;pressure;altitude;pressure_sealevel;temperature;humidity
24302;BME280;12421;49.732;20.078;2023-05-23T00:05:44;96622.59;;;9.37;80.68
24302;BME280;12421;49.732;20.078;2023-05-23T00:15:50;96627.91;;;9.31;80.17
24302;BME280;12421;49.732;20.078;2023-05-23T00:25:54;96627.42;;;9.12;80.01
24302;BME280;12421;49.732;20.078;2023-05-23T00:35:59;96624.91;;;8.82;80.19
24302;BME280;12421;49.732;20.078;2023-05-23T00:46:03;96625.53;;;8.72;80.40
24302;BME280;12421;49.732;20.078;2023-05-23T00:56:06;96624.87;;;8.45;80.80
24302;BME280;12421;49.732;20.078;2023-05-23T01:06:10;96623.25;;;8.26;80.99
24302;BME280;12421;49.732;20.078;2023-05-23T01:16:26;96624.73;;;8.09;81.10
24302;BME280;12421;49.732;20.078;2023-05-23T01:27:07;96625.34;;;7.95;81.17
24302;BME280;12421;49.732;20.078;2023-05-23T01:37:12;96616.80;;;7.92;81.69
24302;BME280;12421;49.732;20.078;2023-05-23T01:47:17;96611.28;;;7.77;81.17
24302;BME280;12421;49.732;20.078;2023-05-23T01:57:21;96609.45;;;7.60;81.36
24302;BME280;12421;49.732;20.078;2023-05-23T02:07:25;96601.45;;;7.51;81.64
24302;BME280;12421;49.732;20.078;2023-05-23T02:17:28;96595.07;;;7.32;81.41
24302;BME280;12421;49.732;20.078;2023-05-23T02:27:33;96595.98;;;7.27;82.04
24302;BME280;12421;49.732;20.078;2023-05-23T02:37:36;96596.70;;;7.16;81.58
24302;BME280;12421;49.732;20.078;2023-05-23T02:47:39;96587.63;;;7.10;81.98
24302;BME280;12421;49.732;20.078;2023-05-23T02:57:44;96584.54;;;6.99;81.93
24302;BME280;12421;49.732;20.078;2023-05-23T03:07:47;96577.55;;;7.01;82.21
24302;BME280;12421;49.732;20.078;2023-05-23T03:17:51;96577.69;;;7.12;82.19
24302;BME280;12421;49.732;20.078;2023-05-23T03:27:54;96573.66;;;7.17;81.89
24302;BME280;12421;49.732;20.078;2023-05-23T03:37:58;96564.21;;;7.21;81.96
24302;BME280;12421;49.732;20.078;2023-05-23T03:48:26;96564.33;;;7.37;82.14
24302;BME280;12421;49.732;20.078;2023-05-23T03:58:55;96569.07;;;7.65;82.72
24302;BME280;12421;49.732;20.078;2023-05-23T04:08:58;96565.21;;;7.96;83.40
24302;BME280;12421;49.732;20.078;2023-05-23T04:19:27;96558.76;;;8.42;83.84
24302;BME280;12421;49.732;20.078;2023-05-23T04:29:31;96555.27;;;8.98;83.75
24302;BME280;12421;49.732;20.078;2023-05-23T04:39:34;96548.12;;;9.52;84.07
24302;BME280;12421;49.732;20.078;2023-05-23T04:49:58;96538.77;;;10.20;83.53
24302;BME280;12421;49.732;20.078;2023-05-23T05:00:03;96538.09;;;10.89;83.02
24302;BME280;12421;49.732;20.078;2023-05-23T05:10:14;96533.98;;;11.55;82.61
24302;BME280;12421;49.732;20.078;2023-05-23T05:20:26;96521.12;;;12.54;81.40
24302;BME280;12421;49.732;20.078;2023-05-23T05:30:31;96516.52;;;14.33;77.96
24302;BME280;12421;49.732;20.078;2023-05-23T05:40:43;96519.92;;;15.92;73.16
24302;BME280;12421;49.732;20.078;2023-05-23T05:51:13;96520.77;;;16.47;70.55
24302;BME280;12421;49.732;20.078;2023-05-23T06:01:42;96506.84;;;16.50;69.55
24302;BME280;12421;49.732;20.078;2023-05-23T06:11:47;96494.25;;;16.75;69.23
24302;BME280;12421;49.732;20.078;2023-05-23T06:21:50;96482.63;;;17.92;68.40
24302;BME280;12421;49.732;20.078;2023-05-23T06:31:54;96472.78;;;19.62;64.86
24302;BME280;12421;49.732;20.078;2023-05-23T06:41:59;96468.70;;;21.18;61.25
24302;BME280;12421;49.732;20.078;2023-05-23T06:52:08;96468.21;;;22.67;59.14
24302;BME280;12421;49.732;20.078;2023-05-23T07:02:12;96457.91;;;24.25;56.70
24302;BME280;12421;49.732;20.078;2023-05-23T07:12:15;96447.98;;;25.63;53.38
24302;BME280;12421;49.732;20.078;2023-05-23T07:22:45;96446.89;;;26.53;50.86
24302;BME280;12421;49.732;20.078;2023-05-23T07:33:15;96437.34;;;27.45;48.40
24302;BME280;12421;49.732;20.078;2023-05-23T07:43:20;96430.55;;;28.09;45.44
24302;BME280;12421;49.732;20.078;2023-05-23T07:53:23;96431.70;;;28.33;44.07
24302;BME280;12421;49.732;20.078;2023-05-23T08:03:31;96430.70;;;28.26;41.61
24302;BME280;12421;49.732;20.078;2023-05-23T08:13:40;96422.92;;;28.22;41.29
24302;BME280;12421;49.732;20.078;2023-05-23T08:24:09;96426.85;;;27.57;40.64
24302;BME280;12421;49.732;20.078;2023-05-23T08:34:15;96423.08;;;27.43;41.49
24302;BME280;12421;49.732;20.078;2023-05-23T08:44:19;96423.92;;;27.22;40.51
24302;BME280;12421;49.732;20.078;2023-05-23T08:54:26;96425.11;;;27.10;41.03
24302;BME280;12421;49.732;20.078;2023-05-23T09:04:31;96430.05;;;26.21;41.88
24302;BME280;12421;49.732;20.078;2023-05-23T09:14:41;96420.81;;;25.57;43.30
24302;BME280;12421;49.732;20.078;2023-05-23T09:24:44;96419.46;;;25.33;43.38
24302;BME280;12421;49.732;20.078;2023-05-23T09:34:55;96416.29;;;25.23;43.66
24302;BME280;12421;49.732;20.078;2023-05-23T09:44:59;96415.30;;;25.17;44.25
24302;BME280;12421;49.732;20.078;2023-05-23T09:55:07;96411.67;;;25.17;44.29
24302;BME280;12421;49.732;20.078;2023-05-23T10:05:19;96408.03;;;25.06;43.11
24302;BME280;12421;49.732;20.078;2023-05-23T10:15:27;96398.20;;;24.83;43.52
24302;BME280;12421;49.732;20.078;2023-05-23T10:25:34;96389.33;;;24.95;43.94
24302;BME280;12421;49.732;20.078;2023-05-23T10:46:03;96367.83;;;24.76;43.82
24302;BME280;12421;49.732;20.078;2023-05-23T10:56:31;96363.14;;;24.81;43.49
24302;BME280;12421;49.732;20.078;2023-05-23T11:07:00;96351.95;;;24.86;43.78
24302;BME280;12421;49.732;20.078;2023-05-23T11:17:30;96351.39;;;24.82;43.91
24302;BME280;12421;49.732;20.078;2023-05-23T11:27:58;96336.75;;;24.71;43.92
24302;BME280;12421;49.732;20.078;2023-05-23T11:38:06;96324.52;;;24.77;43.61
24302;BME280;12421;49.732;20.078;2023-05-23T11:48:11;96312.77;;;24.80;43.66
24302;BME280;12421;49.732;20.078;2023-05-23T11:58:15;96315.95;;;24.94;43.70
24302;BME280;12421;49.732;20.078;2023-05-23T12:08:18;96311.77;;;24.92;42.75
24302;BME280;12421;49.732;20.078;2023-05-23T12:18:21;96311.73;;;24.89;43.09
24302;BME280;12421;49.732;20.078;2023-05-23T12:28:42;96310.10;;;24.84;43.45
24302;BME280;12421;49.732;20.078;2023-05-23T12:38:47;96305.77;;;24.89;43.43
24302;BME280;12421;49.732;20.078;2023-05-23T12:48:51;96304.23;;;24.79;43.49
24302;BME280;12421;49.732;20.078;2023-05-23T12:58:56;96306.20;;;24.86;43.06
24302;BME280;12421;49.732;20.078;2023-05-23T13:08:59;96309.00;;;24.56;43.24
24302;BME280;12421;49.732;20.078;2023-05-23T13:19:02;96345.59;;;24.18;44.39
24302;BME280;12421;49.732;20.078;2023-05-23T13:29:05;96341.07;;;23.85;44.92
24302;BME280;12421;49.732;20.078;2023-05-23T13:39:08;96332.36;;;24.08;45.66
24302;BME280;12421;49.732;20.078;2023-05-23T13:49:11;96328.98;;;24.17;45.46
24302;BME280;12421;49.732;20.078;2023-05-23T13:59:15;96336.05;;;24.23;45.28
24302;BME280;12421;49.732;20.078;2023-05-23T14:09:23;96337.59;;;24.22;45.60
24302;BME280;12421;49.732;20.078;2023-05-23T14:19:26;96335.83;;;24.24;46.29
24302;BME280;12421;49.732;20.078;2023-05-23T14:29:30;96334.56;;;24.17;46.80
24302;BME280;12421;49.732;20.078;2023-05-23T14:39:33;96335.17;;;23.96;46.00
24302;BME280;12421;49.732;20.078;2023-05-23T14:49:37;96340.44;;;23.88;48.18
24302;BME280;12421;49.732;20.078;2023-05-23T14:59:44;96352.77;;;23.81;49.97
24302;BME280;12421;49.732;20.078;2023-05-23T15:09:48;96366.26;;;23.61;51.58
24302;BME280;12421;49.732;20.078;2023-05-23T15:19:55;96367.48;;;23.47;53.16
24302;BME280;12421;49.732;20.078;2023-05-23T15:29:59;96365.38;;;23.36;53.26
24302;BME280;12421;49.732;20.078;2023-05-23T15:40:03;96352.84;;;23.15;51.68
24302;BME280;12421;49.732;20.078;2023-05-23T15:50:32;96343.20;;;22.95;51.04
24302;BME280;12421;49.732;20.078;2023-05-23T16:00:35;96332.23;;;22.85;53.26
24302;BME280;12421;49.732;20.078;2023-05-23T16:10:39;96322.04;;;22.87;53.34
24302;BME280;12421;49.732;20.078;2023-05-23T16:20:42;96319.66;;;22.93;54.06
24302;BME280;12421;49.732;20.078;2023-05-23T16:30:45;96331.23;;;22.79;53.17
24302;BME280;12421;49.732;20.078;2023-05-23T16:40:48;96340.11;;;22.56;53.94
24302;BME280;12421;49.732;20.078;2023-05-23T16:50:56;96343.17;;;22.19;55.57
24302;BME280;12421;49.732;20.078;2023-05-23T17:00:59;96341.53;;;21.89;56.11
24302;BME280;12421;49.732;20.078;2023-05-23T17:11:02;96336.89;;;21.58;56.59
24302;BME280;12421;49.732;20.078;2023-05-23T17:21:06;96346.83;;;21.29;57.13
24302;BME280;12421;49.732;20.078;2023-05-23T17:31:09;96351.76;;;20.98;57.90
24302;BME280;12421;49.732;20.078;2023-05-23T17:41:12;96355.12;;;20.66;58.61
24302;BME280;12421;49.732;20.078;2023-05-23T17:51:16;96360.02;;;20.29;60.25
24302;BME280;12421;49.732;20.078;2023-05-23T18:01:19;96360.56;;;19.79;62.25
24302;BME280;12421;49.732;20.078;2023-05-23T18:11:22;96364.06;;;19.58;63.00
24302;BME280;12421;49.732;20.078;2023-05-23T18:21:26;96368.58;;;19.41;63.87
24302;BME280;12421;49.732;20.078;2023-05-23T18:31:29;96377.41;;;19.15;65.06
24302;BME280;12421;49.732;20.078;2023-05-23T18:41:32;96396.77;;;18.93;66.01
24302;BME280;12421;49.732;20.078;2023-05-23T18:51:35;96414.63;;;18.71;67.03
24302;BME280;12421;49.732;20.078;2023-05-23T19:01:40;96415.95;;;18.55;68.23
24302;BME280;12421;49.732;20.078;2023-05-23T19:11:43;96432.23;;;18.32;68.51
24302;BME280;12421;49.732;20.078;2023-05-23T19:21:46;96425.28;;;17.88;69.77
24302;BME280;12421;49.732;20.078;2023-05-23T19:31:49;96426.75;;;17.53;70.67
24302;BME280;12421;49.732;20.078;2023-05-23T19:41:52;96426.71;;;17.12;71.50
24302;BME280;12421;49.732;20.078;2023-05-23T19:51:56;96432.60;;;16.83;72.15
24302;BME280;12421;49.732;20.078;2023-05-23T20:01:59;96439.08;;;16.77;72.76
24302;BME280;12421;49.732;20.078;2023-05-23T20:12:02;96448.12;;;16.69;73.31
24302;BME280;12421;49.732;20.078;2023-05-23T20:22:05;96451.33;;;16.60;73.58
24302;BME280;12421;49.732;20.078;2023-05-23T20:32:09;96456.02;;;16.27;74.02
24302;BME280;12421;49.732;20.078;2023-05-23T20:42:12;96450.95;;;16.12;74.63
24302;BME280;12421;49.732;20.078;2023-05-23T20:52:16;96463.77;;;16.24;75.10
24302;BME280;12421;49.732;20.078;2023-05-23T21:02:20;96472.69;;;16.27;74.78
24302;BME280;12421;49.732;20.078;2023-05-23T21:12:23;96484.85;;;16.06;75.41
24302;BME280;12421;49.732;20.078;2023-05-23T21:22:26;96490.06;;;16.09;75.42
24302;BME280;12421;49.732;20.078;2023-05-23T21:32:30;96493.51;;;15.98;75.90
24302;BME280;12421;49.732;20.078;2023-05-23T21:42:58;96494.93;;;15.80;76.36
24302;BME280;12421;49.732;20.078;2023-05-23T21:53:02;96495.69;;;15.79;76.80
24302;BME280;12421;49.732;20.078;2023-05-23T22:03:05;96494.66;;;15.77;77.07
24302;BME280;12421;49.732;20.078;2023-05-23T22:13:08;96496.96;;;15.73;77.22
24302;BME280;12421;49.732;20.078;2023-05-23T22:23:11;96493.82;;;15.85;77.36
24302;BME280;12421;49.732;20.078;2023-05-23T22:33:19;96500.35;;;15.77;77.24
24302;BME280;12421;49.732;20.078;2023-05-23T22:43:22;96504.31;;;15.61;77.86
24302;BME280;12421;49.732;20.078;2023-05-23T22:53:26;96502.73;;;15.60;78.12
24302;BME280;12421;49.732;20.078;2023-05-23T23:03:29;96507.52;;;15.65;78.49
24302;BME280;12421;49.732;20.078;2023-05-23T23:13:57;96502.80;;;15.64;78.76
24302;BME280;12421;49.732;20.078;2023-05-23T23:24:01;96510.15;;;15.61;78.96
24302;BME280;12421;49.732;20.078;2023-05-23T23:34:05;96508.55;;;15.70;79.14
24302;BME280;12421;49.732;20.078;2023-05-23T23:44:09;96507.74;;;15.73;78.99
24302;BME280;12421;49.732;20.078;2023-05-23T23:54:12;96506.55;;;15.67;79.11
